sensor_id;sensor_type;location;lat;lon;timestamp;P1;durP1;ratioP1;P2;durP2;ratioP2
20619;SDS011;10469;42.720;23.252;2022-11-20T00:00:48;5.05;;;2.15;;
20619;SDS011;10469;42.720;23.252;2022-11-20T00:03:13;4.22;;;2.10;;
20619;SDS011;10469;42.720;23.252;2022-11-20T00:05:39;3.25;;;1.52;;
20619;SDS011;10469;42.720;23.252;2022-11-20T00:08:04;2.90;;;1.45;;
20619;SDS011;10469;42.720;23.252;2022-11-20T00:10:30;5.55;;;1.67;;
20619;SDS011;10469;42.720;23.252;2022-11-20T00:12:57;5.03;;;1.80;;
20619;SDS011;10469;42.720;23.252;2022-11-20T00:15:23;11.48;;;1.77;;
20619;SDS011;10469;42.720;23.252;2022-11-20T00:17:49;3.30;;;1.80;;
20619;SDS011;10469;42.720;23.252;2022-11-20T00:20:15;5.57;;;1.73;;
20619;SDS011;10469;42.720;23.252;2022-11-20T00:22:40;2.50;;;1.50;;
20619;SDS011;10469;42.720;23.252;2022-11-20T00:25:06;3.70;;;1.40;;
20619;SDS011;10469;42.720;23.252;2022-11-20T00:27:31;4.00;;;1.73;;
20619;SDS011;10469;42.720;23.252;2022-11-20T00:29:57;4.50;;;1.80;;
20619;SDS011;10469;42.720;23.252;2022-11-20T00:32:22;5.13;;;1.85;;
20619;SDS011;10469;42.720;23.252;2022-11-20T00:34:48;6.57;;;1.75;;
20619;SDS011;10469;42.720;23.252;2022-11-20T00:37:13;8.57;;;1.80;;
20619;SDS011;10469;42.720;23.252;2022-11-20T00:39:38;5.13;;;1.73;;
20619;SDS011;10469;42.720;23.252;2022-11-20T00:42:04;4.10;;;1.38;;
20619;SDS011;10469;42.720;23.252;2022-11-20T00:44:29;4.68;;;2.28;;
20619;SDS011;10469;42.720;23.252;2022-11-20T00:46:55;3.45;;;1.70;;
20619;SDS011;10469;42.720;23.252;2022-11-20T00:49:20;5.68;;;1.80;;
20619;SDS011;10469;42.720;23.252;2022-11-20T00:51:46;9.45;;;1.70;;
20619;SDS011;10469;42.720;23.252;2022-11-20T00:54:11;4.80;;;1.73;;
20619;SDS011;10469;42.720;23.252;2022-11-20T00:56:36;5.57;;;1.98;;
20619;SDS011;10469;42.720;23.252;2022-11-20T00:59:02;2.45;;;1.60;;
20619;SDS011;10469;42.720;23.252;2022-11-20T01:01:28;8.48;;;1.70;;
20619;SDS011;10469;42.720;23.252;2022-11-20T01:03:55;5.78;;;1.95;;
20619;SDS011;10469;42.720;23.252;2022-11-20T01:06:23;3.17;;;1.50;;
20619;SDS011;10469;42.720;23.252;2022-11-20T01:08:51;11.93;;;1.63;;
20619;SDS011;10469;42.720;23.252;2022-11-20T01:11:20;5.30;;;1.90;;
20619;SDS011;10469;42.720;23.252;2022-11-20T01:13:47;6.15;;;1.85;;
20619;SDS011;10469;42.720;23.252;2022-11-20T01:19:07;7.70;;;1.75;;
20619;SDS011;10469;42.720;23.252;2022-11-20T01:21:36;3.22;;;1.80;;
20619;SDS011;10469;42.720;23.252;2022-11-20T01:24:04;8.07;;;1.67;;
20619;SDS011;10469;42.720;23.252;2022-11-20T01:26:34;7.20;;;2.05;;
20619;SDS011;10469;42.720;23.252;2022-11-20T01:29:02;8.88;;;1.90;;
20619;SDS011;10469;42.720;23.252;2022-11-20T01:31:32;5.63;;;1.80;;
20619;SDS011;10469;42.720;23.252;2022-11-20T01:34:00;5.15;;;1.83;;
20619;SDS011;10469;42.720;23.252;2022-11-20T01:36:28;3.45;;;1.60;;
20619;SDS011;10469;42.720;23.252;2022-11-20T01:38:57;6.47;;;1.65;;
20619;SDS011;10469;42.720;23.252;2022-11-20T01:41:25;7.45;;;1.60;;
20619;SDS011;10469;42.720;23.252;2022-11-20T01:44:11;11.10;;;1.63;;
20619;SDS011;10469;42.720;23.252;2022-11-20T01:46:40;4.70;;;1.52;;
20619;SDS011;10469;42.720;23.252;2022-11-20T01:49:22;7.03;;;1.85;;
20619;SDS011;10469;42.720;23.252;2022-11-20T01:51:57;4.95;;;1.30;;
20619;SDS011;10469;42.720;23.252;2022-11-20T01:54:36;5.30;;;1.65;;
20619;SDS011;10469;42.720;23.252;2022-11-20T01:57:06;4.05;;;1.75;;
20619;SDS011;10469;42.720;23.252;2022-11-20T01:59:37;3.22;;;1.70;;
20619;SDS011;10469;42.720;23.252;2022-11-20T02:02:07;3.40;;;1.50;;
20619;SDS011;10469;42.720;23.252;2022-11-20T02:04:32;1.85;;;1.25;;
20619;SDS011;10469;42.720;23.252;2022-11-20T02:07:01;7.10;;;1.80;;
20619;SDS011;10469;42.720;23.252;2022-11-20T02:09:29;3.55;;;1.52;;
20619;SDS011;10469;42.720;23.252;2022-11-20T02:11:55;4.30;;;1.85;;
20619;SDS011;10469;42.720;23.252;2022-11-20T02:14:23;1.70;;;1.35;;
20619;SDS011;10469;42.720;23.252;2022-11-20T02:16:49;3.67;;;1.38;;
20619;SDS011;10469;42.720;23.252;2022-11-20T02:24:27;3.63;;;1.55;;
20619;SDS011;10469;42.720;23.252;2022-11-20T02:26:57;3.10;;;1.58;;
20619;SDS011;10469;42.720;23.252;2022-11-20T02:29:51;2.75;;;1.48;;
20619;SDS011;10469;42.720;23.252;2022-11-20T02:32:24;3.95;;;1.60;;
20619;SDS011;10469;42.720;23.252;2022-11-20T02:34:51;4.25;;;1.63;;
20619;SDS011;10469;42.720;23.252;2022-11-20T02:37:17;4.97;;;1.90;;
20619;SDS011;10469;42.720;23.252;2022-11-20T02:39:44;4.03;;;1.70;;
20619;SDS011;10469;42.720;23.252;2022-11-20T02:42:11;5.63;;;1.73;;
20619;SDS011;10469;42.720;23.252;2022-11-20T02:44:37;4.63;;;1.70;;
20619;SDS011;10469;42.720;23.252;2022-11-20T02:47:02;8.30;;;1.85;;
20619;SDS011;10469;42.720;23.252;2022-11-20T02:49:28;6.97;;;1.75;;
20619;SDS011;10469;42.720;23.252;2022-11-20T02:51:53;3.97;;;1.80;;
20619;SDS011;10469;42.720;23.252;2022-11-20T02:54:19;11.35;;;2.30;;
20619;SDS011;10469;42.720;23.252;2022-11-20T02:56:44;8.80;;;1.83;;
20619;SDS011;10469;42.720;23.252;2022-11-20T02:59:10;4.85;;;1.80;;
20619;SDS011;10469;42.720;23.252;2022-11-20T03:01:35;7.65;;;1.75;;
20619;SDS011;10469;42.720;23.252;2022-11-20T03:04:01;7.65;;;2.10;;
20619;SDS011;10469;42.720;23.252;2022-11-20T03:06:26;5.50;;;2.05;;
20619;SDS011;10469;42.720;23.252;2022-11-20T03:08:52;4.57;;;1.40;;
20619;SDS011;10469;42.720;23.252;2022-11-20T03:11:17;4.57;;;1.77;;
20619;SDS011;10469;42.720;23.252;2022-11-20T03:13:43;4.85;;;1.85;;
20619;SDS011;10469;42.720;23.252;2022-11-20T03:16:16;6.28;;;1.80;;
20619;SDS011;10469;42.720;23.252;2022-11-20T03:18:43;6.50;;;2.42;;
20619;SDS011;10469;42.720;23.252;2022-11-20T03:21:09;5.90;;;1.90;;
20619;SDS011;10469;42.720;23.252;2022-11-20T03:23:36;9.45;;;1.73;;
20619;SDS011;10469;42.720;23.252;2022-11-20T03:26:09;6.57;;;2.05;;
20619;SDS011;10469;42.720;23.252;2022-11-20T03:28:42;5.38;;;1.88;;
20619;SDS011;10469;42.720;23.252;2022-11-20T03:31:12;12.60;;;1.88;;
20619;SDS011;10469;42.720;23.252;2022-11-20T03:33:40;4.55;;;1.75;;
20619;SDS011;10469;42.720;23.252;2022-11-20T03:36:09;7.15;;;2.20;;
20619;SDS011;10469;42.720;23.252;2022-11-20T03:38:36;7.82;;;1.92;;
20619;SDS011;10469;42.720;23.252;2022-11-20T03:41:06;9.35;;;2.00;;
20619;SDS011;10469;42.720;23.252;2022-11-20T03:43:33;7.28;;;2.03;;
20619;SDS011;10469;42.720;23.252;2022-11-20T03:45:59;4.63;;;2.05;;
20619;SDS011;10469;42.720;23.252;2022-11-20T03:48:25;4.88;;;1.67;;
20619;SDS011;10469;42.720;23.252;2022-11-20T03:50:51;5.78;;;1.77;;
20619;SDS011;10469;42.720;23.252;2022-11-20T03:53:17;10.38;;;1.77;;
20619;SDS011;10469;42.720;23.252;2022-11-20T03:55:42;3.53;;;1.73;;
20619;SDS011;10469;42.720;23.252;2022-11-20T03:58:08;10.27;;;1.98;;
20619;SDS011;10469;42.720;23.252;2022-11-20T04:00:34;4.85;;;1.80;;
20619;SDS011;10469;42.720;23.252;2022-11-20T04:03:00;7.55;;;1.95;;
20619;SDS011;10469;42.720;23.252;2022-11-20T04:05:26;9.63;;;1.90;;
20619;SDS011;10469;42.720;23.252;2022-11-20T04:07:52;6.15;;;1.95;;
20619;SDS011;10469;42.720;23.252;2022-11-20T04:10:18;4.82;;;1.73;;
20619;SDS011;10469;42.720;23.252;2022-11-20T04:12:44;6.90;;;2.05;;
20619;SDS011;10469;42.720;23.252;2022-11-20T04:15:09;13.85;;;2.42;;
20619;SDS011;10469;42.720;23.252;2022-11-20T04:17:35;7.47;;;1.77;;
20619;SDS011;10469;42.720;23.252;2022-11-20T04:20:01;6.70;;;1.58;;
20619;SDS011;10469;42.720;23.252;2022-11-20T04:22:27;7.32;;;2.55;;
20619;SDS011;10469;42.720;23.252;2022-11-20T04:24:53;5.68;;;1.60;;
20619;SDS011;10469;42.720;23.252;2022-11-20T04:27:18;3.50;;;1.33;;
20619;SDS011;10469;42.720;23.252;2022-11-20T04:29:43;7.10;;;1.92;;
20619;SDS011;10469;42.720;23.252;2022-11-20T04:32:09;6.88;;;1.92;;
20619;SDS011;10469;42.720;23.252;2022-11-20T04:34:34;7.47;;;2.20;;
20619;SDS011;10469;42.720;23.252;2022-11-20T04:37:00;4.72;;;1.70;;
20619;SDS011;10469;42.720;23.252;2022-11-20T04:39:25;4.38;;;1.50;;
20619;SDS011;10469;42.720;23.252;2022-11-20T04:41:51;5.05;;;1.45;;
20619;SDS011;10469;42.720;23.252;2022-11-20T04:44:36;5.75;;;2.20;;
20619;SDS011;10469;42.720;23.252;2022-11-20T04:47:02;2.85;;;1.38;;
20619;SDS011;10469;42.720;23.252;2022-11-20T04:49:27;5.53;;;1.90;;
20619;SDS011;10469;42.720;23.252;2022-11-20T04:51:53;6.10;;;1.60;;
20619;SDS011;10469;42.720;23.252;2022-11-20T04:54:19;3.85;;;1.50;;
20619;SDS011;10469;42.720;23.252;2022-11-20T04:56:47;5.15;;;2.10;;
20619;SDS011;10469;42.720;23.252;2022-11-20T04:59:12;4.78;;;1.48;;
20619;SDS011;10469;42.720;23.252;2022-11-20T05:01:38;2.53;;;1.30;;
20619;SDS011;10469;42.720;23.252;2022-11-20T05:04:04;6.93;;;1.48;;
20619;SDS011;10469;42.720;23.252;2022-11-20T05:06:29;5.78;;;1.52;;
20619;SDS011;10469;42.720;23.252;2022-11-20T05:08:54;4.93;;;1.30;;
20619;SDS011;10469;42.720;23.252;2022-11-20T05:11:20;2.90;;;1.58;;
20619;SDS011;10469;42.720;23.252;2022-11-20T05:13:46;3.83;;;1.50;;
20619;SDS011;10469;42.720;23.252;2022-11-20T05:16:14;3.95;;;1.48;;
20619;SDS011;10469;42.720;23.252;2022-11-20T05:18:41;3.13;;;1.50;;
20619;SDS011;10469;42.720;23.252;2022-11-20T05:21:08;6.63;;;1.60;;
20619;SDS011;10469;42.720;23.252;2022-11-20T05:23:34;4.22;;;1.70;;
20619;SDS011;10469;42.720;23.252;2022-11-20T05:26:00;5.05;;;1.65;;
20619;SDS011;10469;42.720;23.252;2022-11-20T05:28:26;4.60;;;1.60;;
20619;SDS011;10469;42.720;23.252;2022-11-20T05:30:53;6.63;;;1.50;;
20619;SDS011;10469;42.720;23.252;2022-11-20T05:33:19;3.40;;;1.65;;
20619;SDS011;10469;42.720;23.252;2022-11-20T05:35:45;3.72;;;1.63;;
20619;SDS011;10469;42.720;23.252;2022-11-20T05:38:10;6.80;;;1.55;;
20619;SDS011;10469;42.720;23.252;2022-11-20T05:40:36;6.28;;;1.85;;
20619;SDS011;10469;42.720;23.252;2022-11-20T05:43:01;3.78;;;1.88;;
20619;SDS011;10469;42.720;23.252;2022-11-20T05:45:26;2.70;;;1.73;;
20619;SDS011;10469;42.720;23.252;2022-11-20T05:47:52;5.10;;;1.73;;
20619;SDS011;10469;42.720;23.252;2022-11-20T05:50:18;5.35;;;1.77;;
20619;SDS011;10469;42.720;23.252;2022-11-20T05:52:44;5.65;;;1.77;;
20619;SDS011;10469;42.720;23.252;2022-11-20T05:55:09;9.57;;;1.77;;
20619;SDS011;10469;42.720;23.252;2022-11-20T05:57:35;4.82;;;1.50;;
20619;SDS011;10469;42.720;23.252;2022-11-20T06:00:00;3.85;;;1.80;;
20619;SDS011;10469;42.720;23.252;2022-11-20T06:02:26;6.68;;;2.08;;
20619;SDS011;10469;42.720;23.252;2022-11-20T06:04:52;6.30;;;1.88;;
20619;SDS011;10469;42.720;23.252;2022-11-20T06:07:17;6.88;;;2.05;;
20619;SDS011;10469;42.720;23.252;2022-11-20T06:09:43;3.60;;;1.60;;
20619;SDS011;10469;42.720;23.252;2022-11-20T06:12:08;9.40;;;2.00;;
20619;SDS011;10469;42.720;23.252;2022-11-20T06:14:34;9.73;;;2.05;;
20619;SDS011;10469;42.720;23.252;2022-11-20T06:16:59;5.75;;;1.65;;
20619;SDS011;10469;42.720;23.252;2022-11-20T06:19:25;3.13;;;1.33;;
20619;SDS011;10469;42.720;23.252;2022-11-20T06:21:50;2.78;;;1.67;;
20619;SDS011;10469;42.720;23.252;2022-11-20T06:24:16;4.30;;;1.45;;
20619;SDS011;10469;42.720;23.252;2022-11-20T06:26:42;5.05;;;1.75;;
20619;SDS011;10469;42.720;23.252;2022-11-20T06:29:08;3.13;;;1.50;;
20619;SDS011;10469;42.720;23.252;2022-11-20T06:31:34;6.40;;;2.08;;
20619;SDS011;10469;42.720;23.252;2022-11-20T06:34:02;3.20;;;1.85;;
20619;SDS011;10469;42.720;23.252;2022-11-20T06:36:31;4.72;;;1.60;;
20619;SDS011;10469;42.720;23.252;2022-11-20T06:38:57;4.38;;;1.63;;
20619;SDS011;10469;42.720;23.252;2022-11-20T06:41:23;2.92;;;1.65;;
20619;SDS011;10469;42.720;23.252;2022-11-20T06:43:48;4.22;;;1.63;;
20619;SDS011;10469;42.720;23.252;2022-11-20T06:46:15;5.93;;;1.83;;
20619;SDS011;10469;42.720;23.252;2022-11-20T06:48:44;5.70;;;1.90;;
20619;SDS011;10469;42.720;23.252;2022-11-20T06:51:11;5.43;;;1.73;;
20619;SDS011;10469;42.720;23.252;2022-11-20T06:53:37;4.13;;;1.50;;
20619;SDS011;10469;42.720;23.252;2022-11-20T06:56:03;3.97;;;1.77;;
20619;SDS011;10469;42.720;23.252;2022-11-20T06:58:30;5.68;;;1.73;;
20619;SDS011;10469;42.720;23.252;2022-11-20T07:01:00;3.92;;;1.38;;
20619;SDS011;10469;42.720;23.252;2022-11-20T07:03:27;7.55;;;1.52;;
20619;SDS011;10469;42.720;23.252;2022-11-20T07:05:56;3.67;;;1.45;;
20619;SDS011;10469;42.720;23.252;2022-11-20T07:08:23;3.95;;;1.60;;
20619;SDS011;10469;42.720;23.252;2022-11-20T07:10:49;3.58;;;1.30;;
20619;SDS011;10469;42.720;23.252;2022-11-20T07:13:14;6.07;;;1.67;;
20619;SDS011;10469;42.720;23.252;2022-11-20T07:15:40;5.28;;;1.77;;
20619;SDS011;10469;42.720;23.252;2022-11-20T07:18:05;3.75;;;1.55;;
20619;SDS011;10469;42.720;23.252;2022-11-20T07:20:31;5.78;;;1.77;;
20619;SDS011;10469;42.720;23.252;2022-11-20T07:22:56;5.90;;;1.88;;
20619;SDS011;10469;42.720;23.252;2022-11-20T07:25:23;4.40;;;2.08;;
20619;SDS011;10469;42.720;23.252;2022-11-20T07:27:49;5.40;;;1.70;;
20619;SDS011;10469;42.720;23.252;2022-11-20T07:30:15;8.95;;;2.17;;
20619;SDS011;10469;42.720;23.252;2022-11-20T07:32:41;6.68;;;1.42;;
20619;SDS011;10469;42.720;23.252;2022-11-20T07:35:07;7.72;;;2.58;;
20619;SDS011;10469;42.720;23.252;2022-11-20T07:37:36;4.82;;;1.83;;
20619;SDS011;10469;42.720;23.252;2022-11-20T07:40:01;4.57;;;1.60;;
20619;SDS011;10469;42.720;23.252;2022-11-20T07:42:27;5.20;;;1.63;;
20619;SDS011;10469;42.720;23.252;2022-11-20T07:44:52;7.07;;;2.08;;
20619;SDS011;10469;42.720;23.252;2022-11-20T07:47:18;8.10;;;1.90;;
20619;SDS011;10469;42.720;23.252;2022-11-20T07:49:43;9.18;;;2.00;;
20619;SDS011;10469;42.720;23.252;2022-11-20T07:52:08;8.40;;;2.17;;
20619;SDS011;10469;42.720;23.252;2022-11-20T07:54:34;6.72;;;1.88;;
20619;SDS011;10469;42.720;23.252;2022-11-20T07:56:59;6.60;;;2.00;;
20619;SDS011;10469;42.720;23.252;2022-11-20T07:59:28;9.43;;;2.30;;
20619;SDS011;10469;42.720;23.252;2022-11-20T08:01:53;11.25;;;2.95;;
20619;SDS011;10469;42.720;23.252;2022-11-20T08:04:18;7.72;;;2.78;;
20619;SDS011;10469;42.720;23.252;2022-11-20T08:06:44;7.28;;;1.90;;
20619;SDS011;10469;42.720;23.252;2022-11-20T08:09:09;7.63;;;2.45;;
20619;SDS011;10469;42.720;23.252;2022-11-20T08:11:34;4.07;;;2.00;;
20619;SDS011;10469;42.720;23.252;2022-11-20T08:14:19;9.65;;;2.20;;
20619;SDS011;10469;42.720;23.252;2022-11-20T08:16:45;10.70;;;2.70;;
20619;SDS011;10469;42.720;23.252;2022-11-20T08:19:13;15.75;;;2.40;;
20619;SDS011;10469;42.720;23.252;2022-11-20T08:21:39;7.47;;;2.22;;
20619;SDS011;10469;42.720;23.252;2022-11-20T08:24:05;9.98;;;2.10;;
20619;SDS011;10469;42.720;23.252;2022-11-20T08:26:32;13.32;;;2.15;;
20619;SDS011;10469;42.720;23.252;2022-11-20T08:28:59;7.40;;;2.17;;
20619;SDS011;10469;42.720;23.252;2022-11-20T08:31:25;7.13;;;2.55;;
20619;SDS011;10469;42.720;23.252;2022-11-20T08:33:51;9.60;;;2.33;;
20619;SDS011;10469;42.720;23.252;2022-11-20T08:36:18;7.45;;;2.40;;
20619;SDS011;10469;42.720;23.252;2022-11-20T08:38:49;2.67;;;1.45;;
20619;SDS011;10469;42.720;23.252;2022-11-20T08:41:19;6.75;;;2.20;;
20619;SDS011;10469;42.720;23.252;2022-11-20T08:44:01;9.30;;;1.92;;
20619;SDS011;10469;42.720;23.252;2022-11-20T08:46:32;8.85;;;2.05;;
20619;SDS011;10469;42.720;23.252;2022-11-20T08:49:03;5.47;;;2.60;;
20619;SDS011;10469;42.720;23.252;2022-11-20T08:51:29;13.40;;;2.47;;
20619;SDS011;10469;42.720;23.252;2022-11-20T08:53:55;8.13;;;2.88;;
20619;SDS011;10469;42.720;23.252;2022-11-20T08:56:20;9.50;;;2.25;;
20619;SDS011;10469;42.720;23.252;2022-11-20T08:58:46;9.40;;;2.65;;
20619;SDS011;10469;42.720;23.252;2022-11-20T09:01:11;11.00;;;2.95;;
20619;SDS011;10469;42.720;23.252;2022-11-20T09:03:37;9.73;;;2.95;;
20619;SDS011;10469;42.720;23.252;2022-11-20T09:06:03;12.40;;;3.33;;
20619;SDS011;10469;42.720;23.252;2022-11-20T09:08:31;6.05;;;2.30;;
20619;SDS011;10469;42.720;23.252;2022-11-20T09:10:57;13.65;;;2.53;;
20619;SDS011;10469;42.720;23.252;2022-11-20T09:13:23;12.00;;;2.53;;
20619;SDS011;10469;42.720;23.252;2022-11-20T09:15:56;5.70;;;2.45;;
20619;SDS011;10469;42.720;23.252;2022-11-20T09:18:24;10.88;;;3.00;;
20619;SDS011;10469;42.720;23.252;2022-11-20T09:20:50;5.57;;;2.63;;
20619;SDS011;10469;42.720;23.252;2022-11-20T09:23:15;5.50;;;2.55;;
20619;SDS011;10469;42.720;23.252;2022-11-20T09:25:42;11.35;;;2.72;;
20619;SDS011;10469;42.720;23.252;2022-11-20T09:28:08;11.13;;;3.25;;
20619;SDS011;10469;42.720;23.252;2022-11-20T09:30:33;6.43;;;2.17;;
20619;SDS011;10469;42.720;23.252;2022-11-20T09:32:59;4.68;;;2.42;;
20619;SDS011;10469;42.720;23.252;2022-11-20T09:35:24;5.80;;;2.38;;
20619;SDS011;10469;42.720;23.252;2022-11-20T09:37:50;5.30;;;2.05;;
20619;SDS011;10469;42.720;23.252;2022-11-20T09:40:19;11.35;;;2.85;;
20619;SDS011;10469;42.720;23.252;2022-11-20T09:54:26;8.50;;;1.70;;
20619;SDS011;10469;42.720;23.252;2022-11-20T09:56:58;9.35;;;4.57;;
20619;SDS011;10469;42.720;23.252;2022-11-20T10:00:00;6.70;;;2.40;;
20619;SDS011;10469;42.720;23.252;2022-11-20T10:04:51;10.80;;;2.88;;
20619;SDS011;10469;42.720;23.252;2022-11-20T10:07:28;13.23;;;2.35;;
20619;SDS011;10469;42.720;23.252;2022-11-20T10:09:57;12.40;;;2.72;;
20619;SDS011;10469;42.720;23.252;2022-11-20T10:12:26;15.48;;;3.22;;
20619;SDS011;10469;42.720;23.252;2022-11-20T10:20:57;12.82;;;2.83;;
20619;SDS011;10469;42.720;23.252;2022-11-20T10:32:00;14.73;;;3.83;;
20619;SDS011;10469;42.720;23.252;2022-11-20T10:37:26;11.00;;;3.30;;
20619;SDS011;10469;42.720;23.252;2022-11-20T10:39:57;12.38;;;3.08;;
20619;SDS011;10469;42.720;23.252;2022-11-20T10:43:13;10.90;;;2.88;;
20619;SDS011;10469;42.720;23.252;2022-11-20T10:47:51;20.25;;;4.25;;
20619;SDS011;10469;42.720;23.252;2022-11-20T10:50:21;12.52;;;3.70;;
20619;SDS011;10469;42.720;23.252;2022-11-20T10:55:54;11.77;;;2.90;;
20619;SDS011;10469;42.720;23.252;2022-11-20T11:01:06;12.82;;;2.80;;
20619;SDS011;10469;42.720;23.252;2022-11-20T11:03:42;4.97;;;1.88;;
20619;SDS011;10469;42.720;23.252;2022-11-20T11:08:47;9.10;;;2.10;;
20619;SDS011;10469;42.720;23.252;2022-11-20T11:11:23;9.00;;;2.17;;
20619;SDS011;10469;42.720;23.252;2022-11-20T11:13:52;4.30;;;1.70;;
20619;SDS011;10469;42.720;23.252;2022-11-20T11:18:46;5.55;;;1.70;;
20619;SDS011;10469;42.720;23.252;2022-11-20T11:21:11;9.15;;;1.42;;
20619;SDS011;10469;42.720;23.252;2022-11-20T11:23:40;5.00;;;1.65;;
20619;SDS011;10469;42.720;23.252;2022-11-20T11:26:18;4.25;;;2.03;;
20619;SDS011;10469;42.720;23.252;2022-11-20T11:28:58;7.47;;;2.45;;
20619;SDS011;10469;42.720;23.252;2022-11-20T11:34:10;3.35;;;2.10;;
20619;SDS011;10469;42.720;23.252;2022-11-20T11:36:38;6.28;;;2.20;;
20619;SDS011;10469;42.720;23.252;2022-11-20T11:39:04;6.93;;;1.65;;
20619;SDS011;10469;42.720;23.252;2022-11-20T11:41:32;4.40;;;1.63;;
20619;SDS011;10469;42.720;23.252;2022-11-20T11:44:45;5.70;;;1.70;;
20619;SDS011;10469;42.720;23.252;2022-11-20T11:47:21;2.42;;;1.40;;
20619;SDS011;10469;42.720;23.252;2022-11-20T11:52:45;4.05;;;1.38;;
20619;SDS011;10469;42.720;23.252;2022-11-20T11:58:14;4.47;;;1.45;;
20619;SDS011;10469;42.720;23.252;2022-11-20T12:00:45;6.22;;;1.92;;
20619;SDS011;10469;42.720;23.252;2022-11-20T12:03:28;6.25;;;1.30;;
20619;SDS011;10469;42.720;23.252;2022-11-20T12:06:04;6.50;;;1.80;;
20619;SDS011;10469;42.720;23.252;2022-11-20T12:08:41;7.78;;;1.80;;
20619;SDS011;10469;42.720;23.252;2022-11-20T12:14:00;4.15;;;1.63;;
20619;SDS011;10469;42.720;23.252;2022-11-20T12:16:35;7.07;;;1.95;;
20619;SDS011;10469;42.720;23.252;2022-11-20T12:19:02;5.80;;;2.05;;
20619;SDS011;10469;42.720;23.252;2022-11-20T12:21:41;6.93;;;2.00;;
20619;SDS011;10469;42.720;23.252;2022-11-20T12:29:57;5.15;;;1.60;;
20619;SDS011;10469;42.720;23.252;2022-11-20T12:47:13;11.73;;;5.20;;
20619;SDS011;10469;42.720;23.252;2022-11-20T12:50:02;5.22;;;2.63;;
20619;SDS011;10469;42.720;23.252;2022-11-20T12:58:17;3.72;;;2.22;;
20619;SDS011;10469;42.720;23.252;2022-11-20T13:06:39;4.22;;;1.80;;
20619;SDS011;10469;42.720;23.252;2022-11-20T13:09:08;8.13;;;1.90;;
20619;SDS011;10469;42.720;23.252;2022-11-20T13:11:55;6.78;;;2.17;;
20619;SDS011;10469;42.720;23.252;2022-11-20T13:17:33;6.90;;;2.03;;
20619;SDS011;10469;42.720;23.252;2022-11-20T13:20:00;6.53;;;2.00;;
20619;SDS011;10469;42.720;23.252;2022-11-20T13:22:52;7.47;;;1.92;;
20619;SDS011;10469;42.720;23.252;2022-11-20T13:25:28;3.88;;;2.33;;
20619;SDS011;10469;42.720;23.252;2022-11-20T13:30:36;15.55;;;3.83;;
20619;SDS011;10469;42.720;23.252;2022-11-20T13:33:23;10.05;;;3.67;;
20619;SDS011;10469;42.720;23.252;2022-11-20T13:36:01;9.85;;;4.00;;
20619;SDS011;10469;42.720;23.252;2022-11-20T13:38:51;9.93;;;3.78;;
20619;SDS011;10469;42.720;23.252;2022-11-20T13:41:23;9.30;;;3.15;;
20619;SDS011;10469;42.720;23.252;2022-11-20T13:43:54;9.55;;;4.50;;
20619;SDS011;10469;42.720;23.252;2022-11-20T13:46:34;12.20;;;5.45;;
20619;SDS011;10469;42.720;23.252;2022-11-20T13:49:06;6.95;;;3.42;;
20619;SDS011;10469;42.720;23.252;2022-11-20T13:51:42;8.05;;;3.28;;
20619;SDS011;10469;42.720;23.252;2022-11-20T13:56:59;5.93;;;2.88;;
20619;SDS011;10469;42.720;23.252;2022-11-20T14:02:29;7.88;;;3.55;;
20619;SDS011;10469;42.720;23.252;2022-11-20T14:04:57;14.57;;;6.28;;
20619;SDS011;10469;42.720;23.252;2022-11-20T14:07:32;7.25;;;3.88;;
20619;SDS011;10469;42.720;23.252;2022-11-20T14:10:02;4.32;;;2.65;;
20619;SDS011;10469;42.720;23.252;2022-11-20T14:12:29;7.72;;;2.78;;
20619;SDS011;10469;42.720;23.252;2022-11-20T14:14:56;3.85;;;2.10;;
20619;SDS011;10469;42.720;23.252;2022-11-20T14:19:53;3.72;;;2.08;;
20619;SDS011;10469;42.720;23.252;2022-11-20T14:22:23;3.40;;;2.10;;
20619;SDS011;10469;42.720;23.252;2022-11-20T14:27:32;2.72;;;1.95;;
20619;SDS011;10469;42.720;23.252;2022-11-20T14:30:02;4.63;;;2.40;;
20619;SDS011;10469;42.720;23.252;2022-11-20T14:32:29;4.85;;;2.90;;
20619;SDS011;10469;42.720;23.252;2022-11-20T14:34:57;5.63;;;2.80;;
20619;SDS011;10469;42.720;23.252;2022-11-20T14:37:33;3.47;;;2.13;;
20619;SDS011;10469;42.720;23.252;2022-11-20T14:40:02;4.13;;;2.30;;
20619;SDS011;10469;42.720;23.252;2022-11-20T14:42:30;4.70;;;2.05;;
20619;SDS011;10469;42.720;23.252;2022-11-20T14:44:56;1.88;;;1.65;;
20619;SDS011;10469;42.720;23.252;2022-11-20T14:47:24;4.57;;;2.17;;
20619;SDS011;10469;42.720;23.252;2022-11-20T14:49:52;2.28;;;1.40;;
20619;SDS011;10469;42.720;23.252;2022-11-20T14:52:21;5.82;;;3.38;;
20619;SDS011;10469;42.720;23.252;2022-11-20T14:54:51;5.30;;;2.50;;
20619;SDS011;10469;42.720;23.252;2022-11-20T14:57:22;2.20;;;1.77;;
20619;SDS011;10469;42.720;23.252;2022-11-20T14:59:48;5.05;;;2.42;;
20619;SDS011;10469;42.720;23.252;2022-11-20T15:02:14;3.58;;;1.90;;
20619;SDS011;10469;42.720;23.252;2022-11-20T15:04:49;4.18;;;2.58;;
20619;SDS011;10469;42.720;23.252;2022-11-20T15:07:25;2.00;;;1.80;;
20619;SDS011;10469;42.720;23.252;2022-11-20T15:10:27;3.15;;;2.15;;
20619;SDS011;10469;42.720;23.252;2022-11-20T15:12:53;2.45;;;1.85;;
20619;SDS011;10469;42.720;23.252;2022-11-20T15:15:31;6.05;;;2.50;;
20619;SDS011;10469;42.720;23.252;2022-11-20T15:18:02;3.92;;;2.30;;
20619;SDS011;10469;42.720;23.252;2022-11-20T15:20:30;2.83;;;2.05;;
20619;SDS011;10469;42.720;23.252;2022-11-20T15:22:58;2.28;;;1.75;;
20619;SDS011;10469;42.720;23.252;2022-11-20T15:25:24;5.10;;;1.73;;
20619;SDS011;10469;42.720;23.252;2022-11-20T15:27:58;2.40;;;1.98;;
20619;SDS011;10469;42.720;23.252;2022-11-20T15:30:24;2.08;;;1.83;;
20619;SDS011;10469;42.720;23.252;2022-11-20T15:32:49;2.75;;;2.17;;
20619;SDS011;10469;42.720;23.252;2022-11-20T15:35:15;3.75;;;2.05;;
20619;SDS011;10469;42.720;23.252;2022-11-20T15:37:41;3.05;;;1.90;;
20619;SDS011;10469;42.720;23.252;2022-11-20T15:40:07;10.27;;;2.83;;
20619;SDS011;10469;42.720;23.252;2022-11-20T15:42:34;10.57;;;2.40;;
20619;SDS011;10469;42.720;23.252;2022-11-20T15:45:00;5.55;;;1.80;;
20619;SDS011;10469;42.720;23.252;2022-11-20T15:47:27;6.63;;;2.22;;
20619;SDS011;10469;42.720;23.252;2022-11-20T15:49:56;3.83;;;1.92;;
20619;SDS011;10469;42.720;23.252;2022-11-20T15:52:21;3.40;;;1.83;;
20619;SDS011;10469;42.720;23.252;2022-11-20T15:54:46;3.90;;;2.10;;
20619;SDS011;10469;42.720;23.252;2022-11-20T15:57:12;3.78;;;2.08;;
20619;SDS011;10469;42.720;23.252;2022-11-20T15:59:38;3.85;;;1.80;;
20619;SDS011;10469;42.720;23.252;2022-11-20T16:02:12;6.10;;;2.33;;
20619;SDS011;10469;42.720;23.252;2022-11-20T16:04:38;5.43;;;2.20;;
20619;SDS011;10469;42.720;23.252;2022-11-20T16:07:04;3.78;;;2.10;;
20619;SDS011;10469;42.720;23.252;2022-11-20T16:09:29;4.25;;;2.22;;
20619;SDS011;10469;42.720;23.252;2022-11-20T16:11:55;4.85;;;2.50;;
20619;SDS011;10469;42.720;23.252;2022-11-20T16:14:20;7.80;;;2.50;;
20619;SDS011;10469;42.720;23.252;2022-11-20T16:17:04;7.63;;;2.30;;
20619;SDS011;10469;42.720;23.252;2022-11-20T16:19:30;6.13;;;2.38;;
20619;SDS011;10469;42.720;23.252;2022-11-20T16:21:57;7.55;;;2.50;;
20619;SDS011;10469;42.720;23.252;2022-11-20T16:24:22;6.18;;;2.80;;
20619;SDS011;10469;42.720;23.252;2022-11-20T16:26:48;5.43;;;2.70;;
20619;SDS011;10469;42.720;23.252;2022-11-20T16:29:13;6.43;;;2.95;;
20619;SDS011;10469;42.720;23.252;2022-11-20T16:31:39;6.65;;;3.72;;
20619;SDS011;10469;42.720;23.252;2022-11-20T16:34:05;6.75;;;3.35;;